Řízení letového provozu České republiky
Letiste: LKNA Aktualizace: 27.03.2017 12:06:05  UTC
 METAR LKNA 27.03. 12:00 ...
METAR LKNA 271200Z 04004KT 310V100 CAVOK 11/M03 Q1026 NOSIG=
 TAF LKNA 27.03. 11:00 ...
TAF LKNA 271100Z 2712/2812 VRB02KT CAVOK      TEMPO 2712/2718 32008KT=